Terminal Aerodrome Forecast
Issued by NWS

Home | Current Version | Previous Version | Text Only | Print | Product List | Glossary Off
Versions: 1 2 3 4 5 6 7 8 9 10 11 12

000
FTUS45 KGGW 231730
TAFGDV
TAF
KGDV 231730Z 2318/2418 34006KT P6SM VCSH OVC080
     FM231900 32008KT P6SM OVC080
     FM240000 31006KT P6SM BKN110
     FM241200 36004KT P6SM FEW015 FEW200=

USA.gov is the U.S. government's official web portal to all federal, state and local government web resources and services.